Time;durP1;ratioP1;P1;durP2;ratioP2;P2;SDS_P1;SDS_P2;PMS_P1;PMS_P2;Temp;Humidity;BMP_temperature;BMP_pressure;BME280_temperature;BME280_humidity;BME280_pressure;Samples;Min_cycle;Max_cycle;Signal;HPM_P1;HPM_P2
2021/10/10 00:01:38;;;;;;;27.05;19.40;;;13.40;99.90;;;;;;5055590;28;20025;-77
2021/10/10 00:04:04;;;;;;;27.42;18.73;;;13.40;99.90;;;;;;5055558;28;20029;-77
2021/10/10 00:06:30;;;;;;;40.53;18.77;;;13.70;99.90;;;;;;5055592;28;20471;-77
2021/10/10 00:08:55;;;;;;;29.23;17.48;;;14.00;99.90;;;;;;5055256;28;20099;-77
2021/10/10 00:11:21;;;;;;;24.25;14.38;;;14.00;99.90;;;;;;5054340;28;20024;-78
2021/10/10 00:13:47;;;;;;;21.90;15.77;;;14.00;99.90;;;;;;5055536;28;20531;-77
2021/10/10 00:16:13;;;;;;;28.02;20.20;;;14.00;99.90;;;;;;5055275;28;20088;-77
2021/10/10 00:18:38;;;;;;;30.20;21.85;;;13.60;99.90;;;;;;5053939;28;20036;-78
2021/10/10 00:21:04;;;;;;;28.75;21.83;;;13.40;99.90;;;;;;5055344;28;20029;-77
2021/10/10 00:23:30;;;;;;;29.30;21.77;;;13.50;99.90;;;;;;5054094;28;20044;-78
2021/10/10 00:25:56;;;;;;;31.08;21.70;;;13.40;99.90;;;;;;5055246;28;20029;-77
2021/10/10 00:28:22;;;;;;;28.40;19.23;;;13.20;99.90;;;;;;5054320;28;20040;-77
2021/10/10 00:30:48;;;;;;;23.83;17.98;;;13.40;99.90;;;;;;5054456;28;20041;-78
2021/10/10 00:33:13;;;;;;;30.17;20.30;;;13.50;99.90;;;;;;5053917;28;20507;-78
2021/10/10 00:35:39;;;;;;;28.65;20.83;;;13.50;99.90;;;;;;5055112;28;20028;-77
2021/10/10 00:38:05;;;;;;;30.13;22.38;;;13.40;99.90;;;;;;5055001;28;20040;-77
2021/10/10 00:40:31;;;;;;;33.17;23.63;;;13.30;99.90;;;;;;5054754;28;20025;-77
2021/10/10 00:42:56;;;;;;;33.85;24.10;;;13.10;99.90;;;;;;5054897;28;20032;-78
2021/10/10 00:45:22;;;;;;;30.35;23.70;;;13.10;99.90;;;;;;5054941;28;20029;-78
2021/10/10 00:47:48;;;;;;;29.70;22.63;;;13.10;99.90;;;;;;5053501;28;20087;-77
2021/10/10 00:50:14;;;;;;;29.83;22.55;;;13.20;99.90;;;;;;5054419;28;20025;-78
2021/10/10 00:52:42;;;;;;;28.98;21.77;;;13.30;99.90;;;;;;5054553;28;20036;-77
2021/10/10 00:55:09;;;;;;;30.83;21.83;;;13.30;99.90;;;;;;5054694;28;20021;-78
2021/10/10 00:57:41;;;;;;;29.02;21.17;;;13.30;99.90;;;;;;5054773;28;20039;-77
2021/10/10 01:00:08;;;;;;;29.25;22.00;;;13.30;99.90;;;;;;5030116;28;20453;-77
2021/10/10 01:02:35;;;;;;;30.58;23.88;;;13.30;99.90;;;;;;5054344;28;20521;-78
2021/10/10 01:05:01;;;;;;;29.55;23.23;;;13.10;99.90;;;;;;5054468;28;20032;-77
2021/10/10 01:07:27;;;;;;;30.25;24.50;;;13.30;99.90;;;;;;5054486;28;20036;-77
2021/10/10 01:09:53;;;;;;;30.05;23.45;;;13.30;99.90;;;;;;5054088;28;20439;-77
2021/10/10 01:12:19;;;;;;;29.05;23.25;;;13.10;99.90;;;;;;5054724;28;20029;-77
2021/10/10 01:14:45;;;;;;;31.27;23.27;;;13.10;99.90;;;;;;5054385;28;20021;-77
2021/10/10 01:17:10;;;;;;;29.40;21.80;;;13.10;99.90;;;;;;5053829;28;20516;-77
2021/10/10 01:19:38;;;;;;;32.25;23.48;;;13.40;99.90;;;;;;5053982;28;20036;-77
2021/10/10 01:22:04;;;;;;;29.73;23.50;;;13.60;99.90;;;;;;5054196;28;20029;-77
2021/10/10 01:24:30;;;;;;;31.83;23.23;;;13.70;99.90;;;;;;5054175;28;20049;-77
2021/10/10 01:26:56;;;;;;;30.60;22.35;;;13.60;99.90;;;;;;5052695;28;20032;-77
2021/10/10 01:29:22;;;;;;;31.15;22.35;;;13.70;99.90;;;;;;5053672;28;20444;-77
2021/10/10 01:31:49;;;;;;;30.25;22.02;;;13.80;99.90;;;;;;5052276;28;20053;-77
2021/10/10 01:34:14;;;;;;;31.15;23.05;;;13.80;99.90;;;;;;5052825;28;20079;-77
2021/10/10 01:36:42;;;;;;;29.42;21.08;;;13.70;99.90;;;;;;5052726;28;20033;-77
2021/10/10 01:39:07;;;;;;;26.50;19.85;;;13.70;99.90;;;;;;5052161;28;20440;-77
2021/10/10 01:41:33;;;;;;;30.08;22.52;;;13.60;99.90;;;;;;5053858;28;20033;-77
2021/10/10 01:43:59;;;;;;;31.00;22.77;;;13.50;99.90;;;;;;5052541;28;20029;-77
2021/10/10 01:46:25;;;;;;;31.83;21.58;;;13.50;99.90;;;;;;5053489;28;20029;-77
2021/10/10 01:48:51;;;;;;;28.75;21.88;;;13.10;99.90;;;;;;5052233;28;20029;-77
2021/10/10 01:51:17;;;;;;;28.02;21.33;;;13.10;99.90;;;;;;5053522;28;20028;-78
2021/10/10 01:53:43;;;;;;;29.05;22.05;;;13.00;99.90;;;;;;5052413;28;20025;-77
2021/10/10 01:56:09;;;;;;;29.65;21.50;;;13.20;99.90;;;;;;5053577;28;20028;-77
2021/10/10 01:58:35;;;;;;;29.13;21.65;;;13.40;99.90;;;;;;5053558;28;20064;-77
2021/10/10 02:01:01;;;;;;;29.70;22.38;;;13.60;99.90;;;;;;5032468;28;20081;-77
2021/10/10 02:03:26;;;;;;;;;;;13.50;99.90;;;;;;5052441;28;20021;-77
2021/10/10 02:05:52;;;;;;;30.15;22.88;;;13.60;99.90;;;;;;5052172;28;20262;-76
2021/10/10 02:08:18;;;;;;;33.75;25.23;;;13.40;99.90;;;;;;5053203;28;20025;-77
2021/10/10 02:10:45;;;;;;;38.15;28.05;;;13.10;99.90;;;;;;5053014;28;20025;-77
2021/10/10 02:13:11;;;;;;;30.83;22.92;;;13.00;99.90;;;;;;5053225;28;20028;-77
2021/10/10 02:15:38;;;;;;;;;;;13.00;99.90;;;;;;5053549;28;20060;-77
2021/10/10 02:18:04;;;;;;;28.55;22.45;;;13.30;99.90;;;;;;5053274;28;19908;-77
2021/10/10 02:20:30;;;;;;;33.90;25.60;;;13.30;99.90;;;;;;5052678;28;20025;-77
2021/10/10 02:22:56;;;;;;;37.35;27.00;;;13.40;99.90;;;;;;5053226;28;20086;-77
2021/10/10 02:25:21;;;;;;;33.05;25.92;;;13.30;99.90;;;;;;5053067;28;20501;-76
2021/10/10 02:27:48;;;;;;;32.13;24.27;;;12.90;99.90;;;;;;5052917;28;20049;-77
2021/10/10 02:30:14;;;;;;;29.10;22.63;;;12.90;99.90;;;;;;5051281;28;20132;-77
2021/10/10 02:32:40;;;;;;;35.75;27.65;;;12.90;99.90;;;;;;5053013;28;20049;-78
2021/10/10 02:35:06;;;;;;;32.88;24.70;;;13.10;99.90;;;;;;5049402;28;20120;-77
2021/10/10 02:37:31;;;;;;;;;;;13.20;99.90;;;;;;5018208;28;20037;-78
2021/10/10 02:39:57;;;;;;;33.75;22.50;;;13.30;99.90;;;;;;5031621;28;19913;-77
2021/10/10 02:42:23;;;;;;;38.95;24.40;;;13.40;99.90;;;;;;5032766;28;20104;-77
2021/10/10 02:44:49;;;;;;;30.52;22.48;;;13.40;99.90;;;;;;5032772;28;20490;-77
2021/10/10 02:47:14;;;;;;;34.47;24.65;;;13.60;99.90;;;;;;5040092;28;20166;-78
2021/10/10 02:49:41;;;;;;;32.28;23.50;;;13.70;99.90;;;;;;5052833;28;20100;-77
2021/10/10 02:52:06;;;;;;;34.05;24.50;;;13.80;99.90;;;;;;5051113;28;20055;-77
2021/10/10 02:54:32;;;;;;;31.52;23.80;;;13.80;99.90;;;;;;5052752;28;20478;-78
2021/10/10 02:56:58;;;;;;;29.63;23.05;;;13.90;99.90;;;;;;5052451;28;20102;-77
2021/10/10 02:59:23;;;;;;;34.58;25.98;;;13.90;99.90;;;;;;5051297;28;20021;-77
2021/10/10 03:01:49;;;;;;;33.95;25.27;;;13.90;99.90;;;;;;5052793;28;20051;-77
2021/10/10 03:04:15;;;;;;;30.30;22.77;;;14.10;99.90;;;;;;5052659;28;20078;-77
2021/10/10 03:06:41;;;;;;;31.98;24.33;;;14.20;99.90;;;;;;5052215;28;20090;-77
2021/10/10 03:09:07;;;;;;;33.67;23.25;;;14.20;99.90;;;;;;5052565;28;20025;-77
2021/10/10 03:11:32;;;;;;;;;;;14.20;99.90;;;;;;5053066;28;20033;-77
2021/10/10 03:13:58;;;;;;;28.42;21.63;;;14.20;99.90;;;;;;5051300;28;20387;-77
2021/10/10 03:16:24;;;;;;;27.35;21.85;;;14.10;99.90;;;;;;5052566;28;20021;-77
2021/10/10 03:18:49;;;;;;;30.17;22.42;;;14.00;99.90;;;;;;5052088;28;20401;-77
2021/10/10 03:21:15;;;;;;;30.80;23.13;;;13.90;99.90;;;;;;5052438;28;20113;-78
2021/10/10 03:23:41;;;;;;;29.92;23.98;;;13.90;99.90;;;;;;5052371;28;20059;-78
2021/10/10 03:26:07;;;;;;;32.33;24.48;;;13.90;99.90;;;;;;5052509;28;20024;-77
2021/10/10 03:28:32;;;;;;;31.42;23.02;;;13.80;99.90;;;;;;5051858;28;20402;-78
2021/10/10 03:30:58;;;;;;;30.33;22.60;;;14.00;99.90;;;;;;5051033;28;20102;-77
2021/10/10 03:33:24;;;;;;;32.95;23.52;;;14.20;99.90;;;;;;5052324;28;20096;-78
2021/10/10 03:35:50;;;;;;;30.45;23.23;;;14.30;99.90;;;;;;5052604;28;20468;-77
2021/10/10 03:38:16;;;;;;;31.55;23.50;;;14.30;99.90;;;;;;5031727;28;20045;-77
2021/10/10 03:40:41;;;;;;;32.22;23.73;;;14.40;99.90;;;;;;5052045;28;20075;-77
2021/10/10 03:43:07;;;;;;;32.42;24.42;;;14.30;99.90;;;;;;5052357;28;20101;-80
2021/10/10 03:45:33;;;;;;;26.52;20.98;;;14.20;99.90;;;;;;5052364;28;20132;-79
2021/10/10 03:47:59;;;;;;;28.15;21.17;;;14.20;99.90;;;;;;5050548;28;20551;-78
2021/10/10 03:50:24;;;;;;;34.58;25.02;;;14.20;99.90;;;;;;5052355;28;20087;-77
2021/10/10 03:52:51;;;;;;;31.35;22.65;;;14.00;99.90;;;;;;5050878;28;20469;-78
2021/10/10 03:57:48;;;;;;;36.05;22.95;;;14.00;99.90;;;;;;5052059;28;20477;-77
2021/10/10 04:00:15;;;;;;;32.25;23.58;;;14.20;99.90;;;;;;5052221;28;20024;-77
2021/10/10 04:02:41;;;;;;;;;;;14.30;99.90;;;;;;5053350;28;20033;-76
2021/10/10 04:05:18;;;;;;;29.63;22.45;;;14.30;99.90;;;;;;5054319;28;20387;-77
2021/10/10 04:07:44;;;;;;;32.95;22.90;;;14.20;99.90;;;;;;5053861;28;20060;-77
2021/10/10 04:10:10;;;;;;;31.65;23.42;;;14.10;99.90;;;;;;5055370;28;20013;-76
2021/10/10 04:12:36;;;;;;;33.88;24.25;;;14.00;99.90;;;;;;5055692;28;20033;-78
2021/10/10 04:15:02;;;;;;;;;;;14.10;99.90;;;;;;5055862;28;20025;-78
2021/10/10 04:17:27;;;;;;;31.08;22.15;;;14.10;99.90;;;;;;5055174;28;20261;-77
2021/10/10 04:19:53;;;;;;;33.33;22.77;;;14.10;99.90;;;;;;5055539;28;20374;-77
2021/10/10 04:22:19;;;;;;;36.60;24.10;;;14.10;99.90;;;;;;5055363;28;20061;-77
2021/10/10 04:24:45;;;;;;;34.88;25.35;;;14.10;99.90;;;;;;5055232;28;20124;-77
2021/10/10 04:27:10;;;;;;;36.17;26.63;;;14.10;99.90;;;;;;5054849;28;20537;-77
2021/10/10 04:29:36;;;;;;;34.05;25.67;;;14.00;99.90;;;;;;5055186;28;20013;-77
2021/10/10 04:32:02;;;;;;;31.77;24.23;;;13.70;99.90;;;;;;5053490;28;20051;-78
2021/10/10 04:34:29;;;;;;;32.80;24.05;;;13.50;99.90;;;;;;5055177;28;20105;-77
2021/10/10 04:36:54;;;;;;;34.17;26.13;;;13.60;99.90;;;;;;5053615;28;20033;-77
2021/10/10 04:39:20;;;;;;;35.67;24.40;;;13.70;99.90;;;;;;5036064;28;20452;-78
2021/10/10 04:41:46;;;;;;;35.30;25.65;;;13.70;99.90;;;;;;5054933;28;20041;-77
2021/10/10 04:44:12;;;;;;;40.08;24.90;;;13.50;99.90;;;;;;5054888;28;20056;-77
2021/10/10 04:46:37;;;;;;;35.58;27.05;;;13.50;99.90;;;;;;5054922;28;20497;-77
2021/10/10 04:49:03;;;;;;;38.78;29.13;;;13.60;99.90;;;;;;5054343;28;20389;-77
2021/10/10 04:51:29;;;;;;;43.75;32.60;;;13.90;99.90;;;;;;5054907;28;20474;-77
2021/10/10 04:53:55;;;;;;;50.88;32.90;;;13.90;99.90;;;;;;5054680;28;20021;-77
2021/10/10 04:56:21;;;;;;;49.50;32.50;;;14.10;99.90;;;;;;5054684;28;20029;-76
2021/10/10 04:58:47;;;;;;;55.42;34.03;;;14.10;99.90;;;;;;5054308;28;20085;-77
2021/10/10 05:01:13;;;;;;;49.42;32.00;;;14.00;99.90;;;;;;5054642;28;20099;-77
2021/10/10 05:03:38;;;;;;;48.20;33.35;;;14.10;99.90;;;;;;5053347;28;20029;-77
2021/10/10 05:06:04;;;;;;;47.90;33.38;;;14.10;99.90;;;;;;5054323;28;20032;-77
2021/10/10 05:08:30;;;;;;;50.42;33.75;;;14.10;99.90;;;;;;5053911;28;20025;-77
2021/10/10 05:10:56;;;;;;;53.90;36.05;;;14.10;99.90;;;;;;5054248;28;20029;-78
2021/10/10 05:13:22;;;;;;;55.80;36.03;;;14.10;99.90;;;;;;5052848;28;20017;-77
2021/10/10 05:15:47;;;;;;;48.17;32.30;;;13.90;99.90;;;;;;5054490;28;20024;-78
2021/10/10 05:18:13;;;;;;;54.60;35.03;;;13.90;99.90;;;;;;5053804;28;20036;-77
2021/10/10 05:20:39;;;;;;;50.90;33.70;;;13.90;99.90;;;;;;5053058;28;20067;-77
2021/10/10 05:23:04;;;;;;;55.72;36.30;;;13.90;99.90;;;;;;5054240;28;20056;-77
2021/10/10 05:25:30;;;;;;;51.72;33.15;;;13.80;99.90;;;;;;5052602;28;20040;-77
2021/10/10 05:27:56;;;;;;;43.03;28.65;;;13.90;99.90;;;;;;5053782;28;20025;-78
2021/10/10 05:30:22;;;;;;;51.08;31.98;;;13.90;99.90;;;;;;5053657;28;20045;-78
2021/10/10 05:32:48;;;;;;;47.35;32.20;;;13.90;99.90;;;;;;5054117;28;20021;-78
2021/10/10 05:35:13;;;;;;;51.58;32.35;;;13.90;99.90;;;;;;5052640;28;20470;-77
2021/10/10 05:37:39;;;;;;;48.25;31.60;;;13.80;99.90;;;;;;5034714;28;22112;-77
2021/10/10 05:40:05;;;;;;;48.45;30.23;;;14.00;99.90;;;;;;5053802;28;20021;-77
2021/10/10 05:42:32;;;;;;;49.42;31.73;;;13.80;99.90;;;;;;5053640;28;20021;-78
2021/10/10 05:44:59;;;;;;;52.35;31.55;;;13.90;99.90;;;;;;5053847;28;20092;-77
2021/10/10 05:47:25;;;;;;;53.65;31.08;;;13.80;99.90;;;;;;5053379;28;20035;-77
2021/10/10 05:49:51;;;;;;;48.83;30.65;;;13.80;99.90;;;;;;5053779;28;20100;-77
2021/10/10 05:52:22;;;;;;;52.63;32.55;;;13.80;99.90;;;;;;5053666;28;20516;-77
2021/10/10 05:54:48;;;;;;;54.72;31.60;;;13.80;99.90;;;;;;5052041;28;20055;-77
2021/10/10 05:57:18;;;;;;;;;;;13.80;99.90;;;;;;5053644;28;20032;-77
2021/10/10 05:59:46;;;;;;;59.28;32.58;;;13.80;99.90;;;;;;5053439;28;20417;-77
2021/10/10 06:02:11;;;;;;;51.40;31.80;;;13.70;99.90;;;;;;5053422;28;20028;-77
2021/10/10 06:04:39;;;;;;;51.65;32.55;;;13.60;99.90;;;;;;5053367;28;20021;-78
2021/10/10 06:07:05;;;;;;;52.30;32.13;;;13.60;99.90;;;;;;5053135;28;20552;-76
2021/10/10 06:09:31;;;;;;;47.70;30.27;;;13.60;99.90;;;;;;5051793;28;20017;-77
2021/10/10 06:11:57;;;;;;;48.72;31.73;;;13.70;99.90;;;;;;5053648;28;20029;-77
2021/10/10 06:14:23;;;;;;;54.78;32.55;;;13.70;99.90;;;;;;5053262;28;20384;-78
2021/10/10 06:16:48;;;;;;;;;;;13.70;99.90;;;;;;5053619;28;20104;-77
2021/10/10 06:19:14;;;;;;;51.00;30.73;;;13.60;99.90;;;;;;5051411;28;20340;-77
2021/10/10 06:21:40;;;;;;;47.88;31.20;;;13.60;99.90;;;;;;5053117;28;20027;-77
2021/10/10 06:24:06;;;;;;;49.92;31.95;;;13.60;99.90;;;;;;5053092;28;20115;-78
2021/10/10 06:26:31;;;;;;;47.55;30.27;;;13.50;99.90;;;;;;5052242;28;20032;-77
2021/10/10 06:28:57;;;;;;;47.05;30.02;;;13.60;99.90;;;;;;5052572;28;20033;-77
2021/10/10 06:31:23;;;;;;;45.55;30.77;;;13.60;99.90;;;;;;5051495;28;20056;-77
2021/10/10 06:33:49;;;;;;;50.97;33.38;;;13.80;99.90;;;;;;5051681;28;20033;-78
2021/10/10 06:36:19;;;;;;;;;;;13.90;99.90;;;;;;5052147;28;20021;-77
2021/10/10 06:38:48;;;;;;;45.60;29.77;;;14.00;99.90;;;;;;5032303;28;19913;-77
2021/10/10 06:41:15;;;;;;;46.22;29.40;;;14.10;99.90;;;;;;5051644;28;20095;-77
2021/10/10 06:43:40;;;;;;;43.90;27.83;;;13.90;99.90;;;;;;5052780;28;20032;-77
2021/10/10 06:46:06;;;;;;;41.47;28.05;;;14.10;99.90;;;;;;5051649;28;20120;-78
2021/10/10 06:48:32;;;;;;;39.53;27.45;;;14.10;99.90;;;;;;5051085;28;20125;-77
2021/10/10 06:50:58;;;;;;;43.67;28.67;;;14.20;99.90;;;;;;5052832;28;20049;-77
2021/10/10 06:53:23;;;;;;;41.60;27.90;;;14.10;99.90;;;;;;5052804;28;20068;-78
2021/10/10 06:55:49;;;;;;;43.90;29.27;;;14.20;99.90;;;;;;5052453;28;20020;-77
2021/10/10 06:58:16;;;;;;;44.50;28.27;;;14.20;99.90;;;;;;5052538;28;20404;-77
2021/10/10 07:00:42;;;;;;;44.15;29.67;;;14.30;99.90;;;;;;5052689;28;20044;-77
2021/10/10 07:03:07;;;;;;;;;;;14.20;99.90;;;;;;5051941;28;20025;-77
2021/10/10 07:05:33;;;;;;;;;;;14.40;99.90;;;;;;5053001;28;19905;-78
2021/10/10 07:07:58;;;;;;;;;;;14.50;99.90;;;;;;5051493;28;20373;-77
2021/10/10 07:10:24;;;;;;;;;;;14.40;99.90;;;;;;5052833;28;19943;-77
2021/10/10 07:12:50;;;;;;;;;;;14.50;99.90;;;;;;5053196;28;20254;-77
2021/10/10 07:15:15;;;;;;;;;;;14.30;99.90;;;;;;5053009;28;19912;-77
2021/10/10 07:17:41;;;;;;;;;;;14.50;99.90;;;;;;5052535;28;19913;-77
2021/10/10 07:20:23;;;;;;;;;;;14.70;99.90;;;;;;5051742;28;19905;-77
2021/10/10 07:25:33;;;;;;;42.95;27.65;;;15.00;99.90;;;;;;5052264;28;20032;-78
2021/10/10 07:27:58;;;;;;;;;;;15.00;99.90;;;;;;5052550;28;20025;-78
2021/10/10 07:30:24;;;;;;;38.58;26.48;;;15.00;99.90;;;;;;5052172;28;20007;-77
2021/10/10 07:32:50;;;;;;;;;;;15.10;99.90;;;;;;5052879;28;20029;-78
2021/10/10 07:35:15;;;;;;;35.67;25.15;;;15.10;99.90;;;;;;5051158;28;19905;-77
2021/10/10 07:37:41;;;;;;;;;;;15.00;99.90;;;;;;5054830;28;20021;-78
2021/10/10 07:40:08;;;;;;;37.53;26.30;;;15.00;99.90;;;;;;5036716;28;19917;-77
2021/10/10 07:42:34;;;;;;;33.85;24.45;;;15.20;99.90;;;;;;5055977;28;20036;-77
2021/10/10 07:45:08;;;;;;;;;;;15.50;99.90;;;;;;5056568;28;20025;-78
2021/10/10 07:47:46;;;;;;;40.67;27.27;;;15.50;99.90;;;;;;5055751;28;19999;-78
2021/10/10 07:50:13;;;;;;;32.35;23.45;;;15.40;99.90;;;;;;5056083;28;20083;-78
2021/10/10 07:52:39;;;;;;;32.08;23.40;;;15.80;99.90;;;;;;5054634;28;20021;-77
2021/10/10 07:55:06;;;;;;;33.00;24.73;;;16.10;99.90;;;;;;5055741;28;20078;-78
2021/10/10 07:57:32;;;;;;;30.50;24.08;;;16.70;99.90;;;;;;5054487;28;20371;-77
2021/10/10 07:59:57;;;;;;;27.58;21.40;;;16.80;99.90;;;;;;5055771;28;20029;-78
2021/10/10 08:02:26;;;;;;;30.63;22.50;;;16.90;99.90;;;;;;5055804;28;20488;-78
2021/10/10 08:04:52;;;;;;;28.92;23.13;;;17.00;99.90;;;;;;5055600;28;20029;-78
2021/10/10 08:07:18;;;;;;;27.60;20.90;;;17.20;99.90;;;;;;5055600;28;20027;-78
2021/10/10 08:09:44;;;;;;;25.52;19.40;;;17.50;99.90;;;;;;5053910;28;20025;-79
2021/10/10 08:12:09;;;;;;;24.60;19.52;;;18.90;99.90;;;;;;5055639;28;20020;-78
2021/10/10 08:14:35;;;;;;;25.15;19.67;;;19.40;99.90;;;;;;5055600;28;20021;-79
2021/10/10 08:17:01;;;;;;;24.58;18.40;;;20.80;99.90;;;;;;5055423;28;20218;-79
2021/10/10 08:19:27;;;;;;;22.80;18.33;;;22.10;99.20;;;;;;5053772;28;20029;-79
2021/10/10 08:21:53;;;;;;;22.70;18.40;;;23.00;96.10;;;;;;5055488;28;20013;-79
2021/10/10 08:24:21;;;;;;;19.67;16.77;;;22.50;94.60;;;;;;5055283;28;20021;-79
2021/10/10 08:26:49;;;;;;;24.65;19.20;;;22.80;94.80;;;;;;5055255;28;20048;-80
2021/10/10 08:29:16;;;;;;;20.15;16.65;;;22.90;92.70;;;;;;5054809;28;20402;-80
2021/10/10 08:31:43;;;;;;;21.23;17.02;;;23.60;92.00;;;;;;5053794;28;20041;-80
2021/10/10 08:34:09;;;;;;;23.65;17.90;;;23.10;91.20;;;;;;5055126;28;20027;-80
2021/10/10 08:36:35;;;;;;;24.45;18.27;;;23.10;91.20;;;;;;5055198;28;20079;-79
2021/10/10 08:39:01;;;;;;;18.60;16.33;;;23.60;90.40;;;;;;5028405;28;20053;-79
2021/10/10 08:41:33;;;;;;;27.60;17.10;;;23.70;89.90;;;;;;5054880;28;20047;-80
2021/10/10 08:44:04;;;;;;;26.60;17.08;;;24.20;88.50;;;;;;5055349;28;20048;-79
2021/10/10 08:46:34;;;;;;;21.50;15.48;;;24.50;86.60;;;;;;5053437;28;20027;-79
2021/10/10 08:48:59;;;;;;;20.17;16.80;;;24.20;85.70;;;;;;5052820;28;20378;-79
2021/10/10 08:51:25;;;;;;;21.55;16.08;;;23.60;86.40;;;;;;5053894;28;20078;-79
2021/10/10 08:53:51;;;;;;;20.33;16.45;;;22.80;89.60;;;;;;5054690;28;20017;-79
2021/10/10 08:56:18;;;;;;;21.58;18.25;;;22.30;90.90;;;;;;5054725;28;20393;-79
2021/10/10 08:58:45;;;;;;;21.92;17.95;;;21.80;91.90;;;;;;5053165;28;20048;-78
2021/10/10 09:01:16;;;;;;;20.05;16.92;;;21.40;92.70;;;;;;5053373;28;20115;-79
2021/10/10 09:03:49;;;;;;;22.08;17.27;;;21.30;93.50;;;;;;5053163;28;20029;-78
2021/10/10 09:06:15;;;;;;;24.17;18.30;;;21.50;93.40;;;;;;5053067;28;20401;-79
2021/10/10 09:08:41;;;;;;;22.73;17.73;;;21.60;93.50;;;;;;5052822;28;20133;-79
2021/10/10 09:11:09;;;;;;;22.25;17.45;;;21.10;94.30;;;;;;5054452;28;20496;-78
2021/10/10 09:13:40;;;;;;;26.70;19.33;;;20.70;95.60;;;;;;5054349;28;20025;-79
2021/10/10 09:16:07;;;;;;;20.17;16.90;;;20.80;95.60;;;;;;5053138;28;20599;-78
2021/10/10 09:18:52;;;;;;;24.48;18.48;;;21.20;95.60;;;;;;5052530;28;20036;-78
2021/10/10 09:21:24;;;;;;;21.55;18.35;;;21.20;95.20;;;;;;5054324;28;20049;-79
2021/10/10 09:23:56;;;;;;;24.15;18.27;;;21.20;95.20;;;;;;5054218;28;20107;-79
2021/10/10 09:26:23;;;;;;;30.88;22.80;;;21.40;95.50;;;;;;5053213;28;20021;-79
2021/10/10 09:28:50;;;;;;;32.30;20.83;;;21.40;94.90;;;;;;5053719;28;20044;-80
2021/10/10 09:31:16;;;;;;;24.35;19.80;;;23.20;94.30;;;;;;5052599;28;20045;-79
2021/10/10 09:33:50;;;;;;;25.67;20.70;;;24.30;90.00;;;;;;5054138;28;20032;-79
2021/10/10 09:36:22;;;;;;;26.27;21.92;;;24.50;88.90;;;;;;5052458;28;20029;-79
2021/10/10 09:39:11;;;;;;;59.00;25.02;;;25.80;84.00;;;;;;5034820;28;20468;-80
2021/10/10 09:41:47;;;;;;;32.13;21.00;;;26.80;81.10;;;;;;5052321;28;20025;-80
2021/10/10 09:44:21;;;;;;;25.70;21.83;;;27.50;76.70;;;;;;5053917;28;20020;-80
2021/10/10 09:46:48;;;;;;;28.23;24.80;;;27.40;75.40;;;;;;5053772;28;20493;-79
2021/10/10 09:49:30;;;;;;;27.45;23.38;;;27.70;74.70;;;;;;5053416;28;20023;-79
2021/10/10 09:52:09;;;;;;;25.33;22.23;;;27.40;73.70;;;;;;5053966;28;20132;-79
2021/10/10 09:54:55;;;;;;;30.20;25.05;;;27.90;74.20;;;;;;5053326;28;20025;-79
2021/10/10 09:57:23;;;;;;;28.30;24.17;;;27.40;74.30;;;;;;5052255;28;20472;-80
2021/10/10 09:59:50;;;;;;;34.30;27.48;;;28.40;71.80;;;;;;5052649;28;20036;-80
2021/10/10 10:02:16;;;;;;;32.45;25.50;;;27.80;70.50;;;;;;5053118;28;20454;-79
2021/10/10 10:04:46;;;;;;;29.45;24.92;;;26.70;73.10;;;;;;5053392;28;20036;-80
2021/10/10 10:07:14;;;;;;;27.58;23.95;;;26.70;74.40;;;;;;5053667;28;20025;-79
2021/10/10 10:09:40;;;;;;;34.65;27.23;;;26.10;75.90;;;;;;5052904;28;20021;-79
2021/10/10 10:12:07;;;;;;;35.35;27.85;;;25.20;76.50;;;;;;5052126;28;20024;-80
2021/10/10 10:14:34;;;;;;;32.13;25.88;;;24.50;79.40;;;;;;5053235;28;20040;-79
2021/10/10 10:17:02;;;;;;;34.45;28.02;;;24.20;81.40;;;;;;5053374;28;20118;-79
2021/10/10 10:19:28;;;;;;;34.40;26.08;;;24.20;80.90;;;;;;5052785;28;20029;-79
2021/10/10 10:21:56;;;;;;;32.40;28.58;;;23.90;82.70;;;;;;5051954;28;20036;-79
2021/10/10 10:24:23;;;;;;;36.45;30.52;;;23.10;85.00;;;;;;5053075;28;20021;-79
2021/10/10 10:26:50;;;;;;;31.98;27.75;;;22.40;87.40;;;;;;5052999;28;20032;-78
2021/10/10 10:29:23;;;;;;;32.28;27.05;;;22.10;90.00;;;;;;5051463;28;20059;-79
2021/10/10 10:31:49;;;;;;;35.08;26.98;;;22.30;90.30;;;;;;5051514;28;20133;-78
2021/10/10 10:34:25;;;;;;;29.67;26.48;;;22.50;90.20;;;;;;5051764;28;20025;-79
2021/10/10 10:37:01;;;;;;;;;;;22.90;89.30;;;;;;5053426;28;20529;-79
2021/10/10 10:39:45;;;;;;;30.85;25.60;;;23.70;87.30;;;;;;5033479;28;20361;-79
2021/10/10 10:42:13;;;;;;;36.15;26.73;;;24.10;86.00;;;;;;5051474;28;20029;-79
2021/10/10 10:44:42;;;;;;;29.80;24.90;;;24.70;82.00;;;;;;5052771;28;20370;-78
2021/10/10 10:47:14;;;;;;;29.42;26.23;;;24.20;82.70;;;;;;5052820;28;20033;-79
2021/10/10 10:49:55;;;;;;;27.42;23.60;;;22.90;86.20;;;;;;5051130;28;20024;-79
2021/10/10 10:52:29;;;;;;;29.60;23.48;;;22.00;90.30;;;;;;5051487;28;20078;-79
2021/10/10 10:55:05;;;;;;;32.03;26.35;;;22.30;90.30;;;;;;5052666;28;20017;-79
2021/10/10 10:57:46;;;;;;;64.03;28.65;;;22.00;90.20;;;;;;5051180;28;20037;-78
2021/10/10 11:00:20;;;;;;;33.28;27.08;;;22.20;90.60;;;;;;5052446;28;20032;-79
2021/10/10 11:03:01;;;;;;;28.15;23.40;;;22.60;90.20;;;;;;5053002;28;20029;-79
2021/10/10 11:05:46;;;;;;;28.20;22.65;;;25.10;84.30;;;;;;5052455;28;20040;-79
2021/10/10 11:08:27;;;;;;;21.40;19.00;;;27.50;78.00;;;;;;5052614;28;20025;-80
2021/10/10 11:11:18;;;;;;;27.40;24.45;;;29.50;73.20;;;;;;5032739;28;20385;-80
2021/10/10 11:13:57;;;;;;;22.35;19.00;;;29.80;67.50;;;;;;5036812;28;20122;-80
2021/10/10 11:16:26;;;;;;;28.23;20.30;;;29.30;66.80;;;;;;5035219;28;20026;-79
2021/10/10 11:18:57;;;;;;;20.80;16.85;;;29.10;66.70;;;;;;5039919;28;20397;-80
2021/10/10 11:21:36;;;;;;;23.92;18.38;;;30.80;63.10;;;;;;5056646;28;20029;-80
2021/10/10 11:24:04;;;;;;;18.45;16.13;;;29.60;60.70;;;;;;5055005;28;20032;-80
2021/10/10 11:26:37;;;;;;;19.48;17.02;;;29.80;64.40;;;;;;5056488;28;20051;-80
2021/10/10 11:29:07;;;;;;;20.42;17.38;;;32.00;59.70;;;;;;5055954;28;20056;-80
2021/10/10 11:31:36;;;;;;;23.30;18.17;;;30.50;59.50;;;;;;5054903;28;20448;-80
2021/10/10 11:34:13;;;;;;;21.50;17.38;;;29.40;60.80;;;;;;5056303;28;20037;-80
2021/10/10 11:36:50;;;;;;;24.45;15.70;;;27.90;66.40;;;;;;5056337;28;20024;-79
2021/10/10 11:39:17;;;;;;;17.60;14.70;;;30.10;59.80;;;;;;5037144;28;20072;-80
2021/10/10 11:41:45;;;;;;;21.83;17.42;;;29.60;61.10;;;;;;5054700;28;20040;-80
2021/10/10 11:44:26;;;;;;;19.55;15.57;;;26.80;64.20;;;;;;5054943;28;20029;-79
2021/10/10 11:46:54;;;;;;;23.88;19.13;;;25.40;69.50;;;;;;5054513;28;20025;-79
2021/10/10 11:49:37;;;;;;;22.60;17.17;;;24.10;71.20;;;;;;5055854;28;20039;-79
2021/10/10 11:52:24;;;;;;;18.20;15.02;;;26.80;69.90;;;;;;5054505;28;20025;-80
2021/10/10 11:55:00;;;;;;;18.00;13.80;;;32.00;57.90;;;;;;5054373;28;20044;-80
2021/10/10 11:57:27;;;;;;;14.48;11.70;;;32.90;56.40;;;;;;5056029;28;20032;-81
2021/10/10 11:59:56;;;;;;;16.05;12.13;;;35.00;53.30;;;;;;5054108;28;20025;-80
2021/10/10 12:02:33;;;;;;;17.67;14.45;;;34.10;50.40;;;;;;5054629;28;20056;-81
2021/10/10 12:05:08;;;;;;;13.82;11.05;;;34.80;50.40;;;;;;5054142;28;20029;-80
2021/10/10 12:07:35;;;;;;;15.38;13.25;;;34.40;50.20;;;;;;5055771;28;20460;-81
2021/10/10 12:10:04;;;;;;;15.65;11.55;;;35.70;49.00;;;;;;5055210;28;20028;-80
2021/10/10 12:12:30;;;;;;;18.15;11.27;;;35.30;49.00;;;;;;5054415;28;20021;-80
2021/10/10 12:14:58;;;;;;;27.98;12.32;;;32.10;50.80;;;;;;5055589;28;20116;-79
2021/10/10 12:17:47;;;;;;;16.70;12.70;;;29.20;55.90;;;;;;5055462;28;20451;-79
2021/10/10 12:20:15;;;;;;;17.13;14.43;;;27.10;59.30;;;;;;5053703;28;20116;-80
2021/10/10 12:22:52;;;;;;;18.52;13.55;;;25.80;62.30;;;;;;5053939;28;20060;-79
2021/10/10 12:25:28;;;;;;;16.20;12.50;;;25.00;65.00;;;;;;5054691;28;20025;-79
2021/10/10 12:28:13;;;;;;;16.40;13.10;;;24.90;66.20;;;;;;5055236;28;20107;-79
2021/10/10 12:30:41;;;;;;;21.05;13.45;;;25.00;66.40;;;;;;5053445;28;20124;-79
2021/10/10 12:33:24;;;;;;;19.55;15.02;;;24.60;66.30;;;;;;5055132;28;20029;-79
2021/10/10 12:36:00;;;;;;;18.65;14.20;;;24.10;68.30;;;;;;5053914;28;20021;-79
2021/10/10 12:38:46;;;;;;;31.75;15.50;;;24.70;68.50;;;;;;5053749;28;20032;-79
2021/10/10 12:41:21;;;;;;;20.25;15.23;;;24.50;68.10;;;;;;5030471;28;20049;-79
2021/10/10 12:43:55;;;;;;;19.38;14.10;;;24.10;69.60;;;;;;5055111;28;20040;-79